createdAt,value
2018-02-19T00:00:49.055Z,22.02
2018-02-19T00:03:15.299Z,22.87
2018-02-19T00:05:41.535Z,22.05
2018-02-19T00:08:07.877Z,21.02
2018-02-19T00:10:34.204Z,20.75
2018-02-19T00:13:00.546Z,22.02
2018-02-19T00:15:26.844Z,23.05
2018-02-19T00:17:53.107Z,23.50
2018-02-19T00:20:19.769Z,22.40
2018-02-19T00:22:46.409Z,22.20
2018-02-19T00:25:12.999Z,23.23
2018-02-19T00:27:39.355Z,22.10
2018-02-19T00:30:05.582Z,22.02
2018-02-19T00:32:31.927Z,23.02
2018-02-19T00:34:58.202Z,24.35
2018-02-19T00:37:24.405Z,22.05
2018-02-19T00:39:50.728Z,22.45
2018-02-19T00:42:17.055Z,24.70
2018-02-19T00:44:43.624Z,22.15
2018-02-19T00:47:09.901Z,23.60
2018-02-19T00:49:36.159Z,22.37
2018-02-19T00:52:02.458Z,22.48
2018-02-19T00:54:28.688Z,24.75
2018-02-19T00:56:54.995Z,23.17
2018-02-19T00:59:21.189Z,22.48
2018-02-19T01:01:48.061Z,24.58
2018-02-19T01:04:14.343Z,23.08
2018-02-19T01:06:40.595Z,23.58
2018-02-19T01:09:06.861Z,24.27
2018-02-19T01:11:33.065Z,23.35
2018-02-19T01:13:59.327Z,23.80
2018-02-19T01:16:25.537Z,24.98
2018-02-19T01:18:51.736Z,25.83
2018-02-19T01:21:17.999Z,22.13
2018-02-19T01:23:44.293Z,24.70
2018-02-19T01:26:10.525Z,22.25
2018-02-19T01:28:36.708Z,24.02
2018-02-19T01:31:02.976Z,23.70
2018-02-19T01:33:29.207Z,22.98
2018-02-19T01:35:55.425Z,24.25
2018-02-19T01:38:21.676Z,23.92
2018-02-19T01:40:48.046Z,22.77
2018-02-19T01:43:14.654Z,26.42
2018-02-19T01:45:40.938Z,25.05
2018-02-19T01:48:07.160Z,24.70
2018-02-19T01:50:33.409Z,26.05
2018-02-19T01:52:59.737Z,26.08
2018-02-19T01:55:25.922Z,23.75
2018-02-19T01:57:52.221Z,25.48
2018-02-19T02:00:18.459Z,24.23
2018-02-19T02:02:44.715Z,26.20
2018-02-19T02:05:11.358Z,27.87
2018-02-19T02:07:37.750Z,27.52
2018-02-19T02:10:03.990Z,25.88
2018-02-19T02:12:30.280Z,25.25
2018-02-19T02:14:56.516Z,25.92
2018-02-19T02:17:22.730Z,22.77
2018-02-19T02:19:49.098Z,25.80
2018-02-19T02:22:15.336Z,24.40
2018-02-19T02:24:41.555Z,23.85
2018-02-19T02:27:08.065Z,25.00
2018-02-19T02:29:34.391Z,25.00
2018-02-19T02:32:00.608Z,24.52
2018-02-19T02:34:27.683Z,24.48
2018-02-19T02:36:53.924Z,24.95
2018-02-19T02:39:20.162Z,23.55
2018-02-19T02:41:46.490Z,25.80
2018-02-19T02:44:12.766Z,23.50
2018-02-19T02:46:39.821Z,24.45
2018-02-19T02:49:06.085Z,24.17
2018-02-19T02:51:32.444Z,24.10
2018-02-19T02:53:58.656Z,23.62
2018-02-19T02:56:24.917Z,24.25
2018-02-19T02:58:51.196Z,24.40
2018-02-19T03:01:17.426Z,24.33
2018-02-19T03:03:43.628Z,23.33
2018-02-19T03:06:09.846Z,23.42
2018-02-19T03:08:36.123Z,24.23
2018-02-19T03:11:02.349Z,24.08
2018-02-19T03:13:28.562Z,24.80
2018-02-19T03:15:54.780Z,24.23
2018-02-19T03:18:21.020Z,24.83
2018-02-19T03:20:47.208Z,24.70
2018-02-19T03:23:13.483Z,24.17
2018-02-19T03:25:39.781Z,25.27
2018-02-19T03:28:06.013Z,26.37
2018-02-19T03:30:32.216Z,24.33
2018-02-19T03:32:58.451Z,24.05
2018-02-19T03:35:24.701Z,25.62
2018-02-19T03:37:50.900Z,25.75
2018-02-19T03:40:17.115Z,25.15
2018-02-19T03:42:44.127Z,25.00
2018-02-19T03:45:10.378Z,25.50
2018-02-19T03:47:36.565Z,23.62
2018-02-19T03:50:02.920Z,23.67
2018-02-19T03:52:29.156Z,25.23
2018-02-19T03:54:55.446Z,24.52
2018-02-19T03:57:21.691Z,23.65
2018-02-19T03:59:47.907Z,24.52
2018-02-19T04:02:14.143Z,22.37
2018-02-19T04:04:40.407Z,23.55
2018-02-19T04:07:06.991Z,23.23
2018-02-19T04:09:33.183Z,22.67
2018-02-19T04:11:59.519Z,24.02
2018-02-19T04:14:26.111Z,20.83
2018-02-19T04:16:52.421Z,22.42
2018-02-19T04:19:18.696Z,21.90
2018-02-19T04:21:44.900Z,21.62
2018-02-19T04:24:11.104Z,20.25
2018-02-19T04:26:37.372Z,19.65
2018-02-19T04:29:03.589Z,20.02
2018-02-19T04:31:29.855Z,20.85
2018-02-19T04:33:56.499Z,19.40
2018-02-19T04:36:22.747Z,17.35
2018-02-19T04:38:49.562Z,19.50
2018-02-19T04:41:15.844Z,20.67
2018-02-19T04:43:42.168Z,18.62
2018-02-19T04:49:08.217Z,18.92
2018-02-19T04:51:34.524Z,19.80
2018-02-19T04:54:00.785Z,20.42
2018-02-19T04:56:26.994Z,18.50
2018-02-19T04:58:53.361Z,19.12
2018-02-19T05:01:19.638Z,19.00
2018-02-19T05:03:45.873Z,20.08
2018-02-19T05:06:12.092Z,20.80
2018-02-19T05:08:38.481Z,19.42
2018-02-19T05:11:04.750Z,19.15
2018-02-19T05:13:30.978Z,22.87
2018-02-19T05:15:57.259Z,20.37
2018-02-19T05:18:23.527Z,21.45
2018-02-19T05:20:49.931Z,21.52
2018-02-19T05:23:16.517Z,20.45
2018-02-19T05:25:42.809Z,19.98
2018-02-19T05:28:09.459Z,21.10
2018-02-19T05:30:35.655Z,20.30
2018-02-19T05:33:01.886Z,22.62
2018-02-19T05:35:28.770Z,21.58
2018-02-19T05:37:54.963Z,21.23
2018-02-19T05:40:21.613Z,21.50
2018-02-19T05:42:48.511Z,18.75
2018-02-19T05:45:14.720Z,19.58
2018-02-19T05:47:40.934Z,21.42
2018-02-19T05:50:07.174Z,20.73
2018-02-19T05:52:33.402Z,22.95
2018-02-19T05:54:59.740Z,20.10
2018-02-19T05:57:26.014Z,21.73
2018-02-19T05:59:52.650Z,20.20
2018-02-19T06:02:19.275Z,23.58
2018-02-19T06:04:45.536Z,20.30
2018-02-19T06:07:11.892Z,21.23
2018-02-19T06:09:40.355Z,20.08
2018-02-19T06:12:06.690Z,22.20
2018-02-19T06:14:33.263Z,20.70
2018-02-19T06:16:59.495Z,20.80
2018-02-19T06:19:25.695Z,20.83
2018-02-19T06:21:51.940Z,21.25
2018-02-19T06:24:18.154Z,20.30
2018-02-19T06:26:44.364Z,22.55
2018-02-19T06:29:10.645Z,22.30
2018-02-19T06:31:36.918Z,21.55
2018-02-19T06:34:03.140Z,21.48
2018-02-19T06:36:29.456Z,21.33
2018-02-19T06:38:55.731Z,19.85
2018-02-19T06:41:21.997Z,22.13
2018-02-19T06:43:48.691Z,19.62
2018-02-19T06:46:15.079Z,19.48
2018-02-19T06:48:41.713Z,19.83
2018-02-19T06:51:09.216Z,20.90
2018-02-19T06:53:35.499Z,20.05
2018-02-19T06:56:02.109Z,18.87
2018-02-19T06:58:28.338Z,19.98
2018-02-19T07:00:54.657Z,21.75
2018-02-19T07:03:20.936Z,20.05
2018-02-19T07:05:47.523Z,21.67
2018-02-19T07:08:13.819Z,19.20
2018-02-19T07:10:40.078Z,21.48
2018-02-19T07:13:06.343Z,20.80
2018-02-19T07:15:32.923Z,19.45
2018-02-19T07:17:59.305Z,20.20
2018-02-19T07:20:25.557Z,19.90
2018-02-19T07:22:51.814Z,20.50
2018-02-19T07:25:18.013Z,19.02
2018-02-19T07:27:44.285Z,20.48
2018-02-19T07:30:10.498Z,21.02
2018-02-19T07:32:36.745Z,19.42
2018-02-19T07:35:03.020Z,18.92
2018-02-19T07:37:29.606Z,22.00
2018-02-19T07:39:55.815Z,21.83
2018-02-19T07:42:22.406Z,19.73
2018-02-19T07:44:48.626Z,19.58
2018-02-19T07:47:15.003Z,19.70
2018-02-19T07:49:41.525Z,18.98
2018-02-19T07:52:07.863Z,18.55
2018-02-19T07:54:34.135Z,20.50
2018-02-19T07:57:00.348Z,19.80
2018-02-19T07:59:27.028Z,19.90
2018-02-19T08:01:53.312Z,19.85
2018-02-19T08:04:19.570Z,20.40
2018-02-19T08:06:45.864Z,18.12
2018-02-19T08:09:12.095Z,20.73
2018-02-19T08:11:38.385Z,19.02
2018-02-19T08:14:04.608Z,20.67
2018-02-19T08:16:30.826Z,20.92
2018-02-19T08:18:57.092Z,19.95
2018-02-19T08:21:23.316Z,19.02
2018-02-19T08:23:49.562Z,25.27
2018-02-19T08:26:15.740Z,23.38
2018-02-19T08:28:41.979Z,21.20
2018-02-19T08:31:08.331Z,19.42
2018-02-19T08:33:34.637Z,21.30
2018-02-19T08:36:00.892Z,19.52
2018-02-19T08:38:27.134Z,20.00
2018-02-19T08:40:53.313Z,20.02
2018-02-19T08:43:19.560Z,21.12
2018-02-19T08:45:45.811Z,19.60
2018-02-19T08:48:12.098Z,20.50
2018-02-19T08:50:38.835Z,22.10
2018-02-19T08:53:05.122Z,22.60
2018-02-19T08:55:31.378Z,21.08
2018-02-19T08:57:57.628Z,21.25
2018-02-19T09:00:24.554Z,19.92
2018-02-19T09:02:50.761Z,21.33
2018-02-19T09:05:17.095Z,21.50
2018-02-19T09:07:43.325Z,20.02
2018-02-19T09:10:09.569Z,19.12
2018-02-19T09:12:35.986Z,19.05
2018-02-19T09:15:02.303Z,21.45
2018-02-19T09:17:28.582Z,20.80
2018-02-19T09:19:55.237Z,20.55
2018-02-19T09:22:21.490Z,18.60
2018-02-19T09:24:47.673Z,21.17
2018-02-19T09:27:14.252Z,22.17
2018-02-19T09:29:40.586Z,20.05
2018-02-19T09:32:06.804Z,19.15
2018-02-19T09:34:33.050Z,20.05
2018-02-19T09:36:59.284Z,19.40
2018-02-19T09:39:25.490Z,18.62
2018-02-19T09:41:51.687Z,18.33
2018-02-19T09:44:17.961Z,19.70
2018-02-19T09:46:44.237Z,18.52
2018-02-19T09:49:10.854Z,19.00
2018-02-19T09:51:37.379Z,18.87
2018-02-19T09:54:03.601Z,21.45
2018-02-19T09:56:29.898Z,18.52
2018-02-19T09:58:56.206Z,19.15
2018-02-19T10:01:22.798Z,20.40
2018-02-19T10:03:49.225Z,21.00
2018-02-19T10:06:15.498Z,21.65
2018-02-19T10:08:42.144Z,22.73
2018-02-19T10:11:09.571Z,20.25
2018-02-19T10:13:35.846Z,20.42
2018-02-19T10:16:02.048Z,19.15
2018-02-19T10:18:28.649Z,19.80
2018-02-19T10:20:54.964Z,19.08
2018-02-19T10:23:21.302Z,20.35
2018-02-19T10:25:47.525Z,19.92
2018-02-19T10:28:13.837Z,21.87
2018-02-19T10:30:40.119Z,20.20
2018-02-19T10:33:06.434Z,19.77
2018-02-19T10:35:32.703Z,20.62
2018-02-19T10:37:58.945Z,20.10
2018-02-19T10:40:25.544Z,22.30
2018-02-19T10:42:51.826Z,19.15
2018-02-19T10:45:18.091Z,20.20
2018-02-19T10:47:44.369Z,26.30
2018-02-19T10:50:10.576Z,20.37
2018-02-19T10:52:36.957Z,25.15
2018-02-19T10:55:03.262Z,19.98
2018-02-19T10:57:29.541Z,31.23
2018-02-19T10:59:56.713Z,20.10
2018-02-19T11:02:23.471Z,33.63
2018-02-19T11:04:49.740Z,23.20
2018-02-19T11:07:15.977Z,26.80
2018-02-19T11:09:42.259Z,21.80
2018-02-19T11:12:08.501Z,19.75
2018-02-19T11:14:34.783Z,39.63
2018-02-19T11:17:01.073Z,21.27
2018-02-19T11:19:27.299Z,22.15
2018-02-19T11:21:53.522Z,21.02
2018-02-19T11:24:19.770Z,40.08
2018-02-19T11:26:45.979Z,22.55
2018-02-19T11:29:12.298Z,21.83
2018-02-19T11:31:38.527Z,20.95
2018-02-19T11:34:04.915Z,21.33
2018-02-19T11:36:31.246Z,21.65
2018-02-19T11:38:57.881Z,23.05
2018-02-19T11:41:24.094Z,30.12
2018-02-19T11:43:50.334Z,23.05
2018-02-19T11:46:16.589Z,19.98
2018-02-19T11:48:43.175Z,38.85
2018-02-19T11:51:09.507Z,21.92
2018-02-19T11:53:35.764Z,23.73
2018-02-19T11:56:01.975Z,21.23
2018-02-19T11:58:28.269Z,20.42
2018-02-19T12:00:54.515Z,20.55
2018-02-19T12:03:20.725Z,21.95
2018-02-19T12:05:46.970Z,22.23
2018-02-19T12:08:13.245Z,21.65
2018-02-19T12:10:40.872Z,23.20
2018-02-19T12:13:07.117Z,24.55
2018-02-19T12:15:33.398Z,21.48
2018-02-19T12:17:59.665Z,22.42
2018-02-19T12:20:25.927Z,22.48
2018-02-19T12:22:52.196Z,30.42
2018-02-19T12:25:18.454Z,21.08
2018-02-19T12:27:44.681Z,25.95
2018-02-19T12:30:10.980Z,21.10
2018-02-19T12:32:37.245Z,22.87
2018-02-19T12:35:03.480Z,26.87
2018-02-19T12:37:29.727Z,20.37
2018-02-19T12:39:56.296Z,24.63
2018-02-19T12:42:22.575Z,20.48
2018-02-19T12:44:48.831Z,21.15
2018-02-19T12:47:15.083Z,21.85
2018-02-19T12:49:41.343Z,19.90
2018-02-19T12:52:07.607Z,22.20
2018-02-19T12:54:34.296Z,23.50
2018-02-19T12:57:00.506Z,23.95
2018-02-19T12:59:26.744Z,19.98
2018-02-19T13:01:53.458Z,18.55
2018-02-19T13:04:19.694Z,19.20
2018-02-19T13:06:45.969Z,19.90
2018-02-19T13:09:12.665Z,20.65
2018-02-19T13:11:38.974Z,19.10
2018-02-19T13:14:05.229Z,19.83
2018-02-19T13:16:31.486Z,20.10
2018-02-19T13:18:57.775Z,20.27
2018-02-19T13:21:24.020Z,21.00
2018-02-19T13:23:50.254Z,19.65
2018-02-19T13:26:16.528Z,22.80
2018-02-19T13:28:42.775Z,25.50
2018-02-19T13:31:09.984Z,22.20
2018-02-19T13:33:36.284Z,22.70
2018-02-19T13:36:03.281Z,19.92
2018-02-19T13:38:29.887Z,21.33
2018-02-19T13:40:56.170Z,19.15
2018-02-19T13:43:22.449Z,21.15
2018-02-19T13:45:48.697Z,20.42
2018-02-19T13:48:15.304Z,19.12
2018-02-19T13:50:41.513Z,21.80
2018-02-19T13:53:07.766Z,20.58
2018-02-19T13:55:34.031Z,19.95
2018-02-19T13:58:00.616Z,19.62
2018-02-19T14:00:26.841Z,19.40
2018-02-19T14:02:53.105Z,20.35
2018-02-19T14:05:19.427Z,20.80
2018-02-19T14:07:45.729Z,21.85
2018-02-19T14:10:11.984Z,19.42
2018-02-19T14:12:38.367Z,20.70
2018-02-19T14:15:04.582Z,21.65
2018-02-19T14:17:31.102Z,19.62
2018-02-19T14:19:57.715Z,22.75
2018-02-19T14:22:23.953Z,21.52
2018-02-19T14:24:50.833Z,22.55
2018-02-19T14:27:17.707Z,22.55
2018-02-19T14:29:44.550Z,21.92
2018-02-19T14:32:10.833Z,21.10
2018-02-19T14:34:37.025Z,20.60
2018-02-19T14:37:03.315Z,20.02
2018-02-19T14:39:29.549Z,22.50
2018-02-19T14:41:55.763Z,23.12
2018-02-19T14:44:22.480Z,22.10
2018-02-19T14:46:49.072Z,20.58
2018-02-19T14:49:15.332Z,22.85
2018-02-19T14:51:41.636Z,20.92
2018-02-19T14:54:07.906Z,20.67
2018-02-19T14:56:34.149Z,20.30
2018-02-19T14:59:00.399Z,19.83
2018-02-19T15:01:26.689Z,19.85
2018-02-19T15:03:53.277Z,20.70
2018-02-19T15:06:19.517Z,20.92
2018-02-19T15:08:45.781Z,25.67
2018-02-19T15:11:12.377Z,21.50
2018-02-19T15:13:38.621Z,23.95
2018-02-19T15:16:04.863Z,21.70
2018-02-19T15:18:31.097Z,24.12
2018-02-19T15:20:57.685Z,22.50
2018-02-19T15:23:25.261Z,29.00
2018-02-19T15:25:52.222Z,24.80
2018-02-19T15:28:18.476Z,24.75
2018-02-19T15:30:45.136Z,24.08
2018-02-19T15:33:11.389Z,24.98
2018-02-19T15:35:37.682Z,25.17
2018-02-19T15:38:04.060Z,23.15
2018-02-19T15:40:30.284Z,26.02
2018-02-19T15:42:56.601Z,25.25
2018-02-19T15:45:22.823Z,22.10
2018-02-19T15:47:49.135Z,21.50
2018-02-19T15:50:15.405Z,23.80
2018-02-19T15:52:41.661Z,22.30
2018-02-19T15:55:07.982Z,22.50
2018-02-19T15:57:34.245Z,20.33
2018-02-19T16:00:00.931Z,21.62
2018-02-19T16:02:27.289Z,22.00
2018-02-19T16:04:54.028Z,24.55
2018-02-19T16:07:20.402Z,23.83
2018-02-19T16:09:46.720Z,22.42
2018-02-19T16:12:12.975Z,22.25
2018-02-19T16:14:39.452Z,22.52
2018-02-19T16:17:06.135Z,21.60
2018-02-19T16:19:32.374Z,21.62
2018-02-19T16:21:58.632Z,20.15
2018-02-19T16:24:24.888Z,20.45
2018-02-19T16:26:51.118Z,20.15
2018-02-19T16:29:17.367Z,21.17
2018-02-19T16:31:43.638Z,20.62
2018-02-19T16:34:10.340Z,21.10
2018-02-19T16:36:36.590Z,21.77
2018-02-19T16:39:02.998Z,21.85
2018-02-19T16:41:29.259Z,20.45
2018-02-19T16:43:55.504Z,20.85
2018-02-19T16:46:21.762Z,20.40
2018-02-19T16:48:48.438Z,21.70
2018-02-19T16:51:14.653Z,21.83
2018-02-19T16:53:40.920Z,21.23
2018-02-19T16:56:07.143Z,22.30
2018-02-19T16:58:33.379Z,23.40
2018-02-19T17:00:59.677Z,21.60
2018-02-19T17:03:25.936Z,22.80
2018-02-19T17:05:52.210Z,21.55
2018-02-19T17:08:18.490Z,20.92
2018-02-19T17:10:44.709Z,22.95
2018-02-19T17:13:10.975Z,23.25
2018-02-19T17:15:37.156Z,21.95
2018-02-19T17:18:03.870Z,20.67
2018-02-19T17:20:30.131Z,23.00
2018-02-19T17:22:56.433Z,21.15
2018-02-19T17:25:22.668Z,21.52
2018-02-19T17:27:48.945Z,20.55
2018-02-19T17:30:15.231Z,20.58
2018-02-19T17:32:41.458Z,19.67
2018-02-19T17:35:07.745Z,22.00
2018-02-19T17:37:34.057Z,19.08
2018-02-19T17:40:00.335Z,21.92
2018-02-19T17:42:27.611Z,21.67
2018-02-19T17:44:53.890Z,21.77
2018-02-19T17:47:20.190Z,23.08
2018-02-19T17:49:46.487Z,23.08
2018-02-19T17:52:12.735Z,20.52
2018-02-19T17:54:39.116Z,21.70
2018-02-19T17:57:05.729Z,22.20
2018-02-19T17:59:32.033Z,25.02
2018-02-19T18:01:58.310Z,23.20
2018-02-19T18:04:24.832Z,23.33
2018-02-19T18:06:51.049Z,21.87
2018-02-19T18:09:17.296Z,22.92
2018-02-19T18:11:43.949Z,25.75
2018-02-19T18:14:10.304Z,26.00
2018-02-19T18:16:36.578Z,23.33
2018-02-19T18:19:03.223Z,24.05
2018-02-19T18:21:29.827Z,25.80
2018-02-19T18:23:56.083Z,24.45
2018-02-19T18:26:22.502Z,21.58
2018-02-19T18:28:48.726Z,23.70
2018-02-19T18:31:15.032Z,23.62
2018-02-19T18:33:41.285Z,25.15
2018-02-19T18:36:07.490Z,23.17
2018-02-19T18:38:33.821Z,22.83
2018-02-19T18:41:00.158Z,24.73
2018-02-19T18:43:26.439Z,25.10
2018-02-19T18:45:52.649Z,22.77
2018-02-19T18:48:19.923Z,23.48
2018-02-19T18:50:46.196Z,25.10
2018-02-19T18:53:12.508Z,24.42
2018-02-19T18:55:39.385Z,23.08
2018-02-19T18:58:05.623Z,23.23
2018-02-19T19:00:31.861Z,24.55
2018-02-19T19:02:58.142Z,23.62
2018-02-19T19:05:24.374Z,23.50
2018-02-19T19:08:02.752Z,25.58
2018-02-19T19:10:41.607Z,24.75
2018-02-19T19:13:07.964Z,28.20
2018-02-19T19:15:34.261Z,26.48
2018-02-19T19:18:01.293Z,24.52
2018-02-19T19:20:27.542Z,24.12
2018-02-19T19:22:53.770Z,23.67
2018-02-19T19:25:20.049Z,26.58
2018-02-19T19:27:46.997Z,22.60
2018-02-19T19:30:13.300Z,24.10
2018-02-19T19:32:40.445Z,23.40
2018-02-19T19:35:06.720Z,25.05
2018-02-19T19:37:33.407Z,23.58
2018-02-19T19:39:59.701Z,28.35
2018-02-19T19:42:26.578Z,27.40
2018-02-19T19:44:53.992Z,37.67
2018-02-19T19:47:20.254Z,35.05
2018-02-19T19:49:46.488Z,27.95
2018-02-19T19:52:12.805Z,27.08
2018-02-19T19:54:39.231Z,40.70
2018-02-19T19:57:06.684Z,30.30
2018-02-19T19:59:32.920Z,27.30
2018-02-19T20:01:59.236Z,42.88
2018-02-19T20:04:25.528Z,37.03
2018-02-19T20:06:51.757Z,65.80
2018-02-19T20:09:18.010Z,64.93
2018-02-19T20:11:44.363Z,44.55
2018-02-19T20:14:11.038Z,59.70
2018-02-19T20:16:37.324Z,29.48
2018-02-19T20:19:03.685Z,26.90
2018-02-19T20:21:29.921Z,28.42
2018-02-19T20:23:56.220Z,26.87
2018-02-19T20:26:22.550Z,32.83
2018-02-19T20:28:48.809Z,33.67
2018-02-19T20:31:15.084Z,31.55
2018-02-19T20:33:41.420Z,44.72
2018-02-19T20:36:08.083Z,32.58
2018-02-19T20:38:34.461Z,42.55
2018-02-19T20:41:00.810Z,52.70
2018-02-19T20:43:27.096Z,46.88
2018-02-19T20:45:53.452Z,37.60
2018-02-19T20:48:20.431Z,33.28
2018-02-19T20:50:46.764Z,26.75
2018-02-19T20:53:13.064Z,26.92
2018-02-19T20:55:40.760Z,26.00
2018-02-19T20:58:07.008Z,25.60
2018-02-19T21:00:33.297Z,24.65
2018-02-19T21:02:59.722Z,24.92
2018-02-19T21:05:25.961Z,24.95
2018-02-19T21:07:52.227Z,34.65
2018-02-19T21:10:18.564Z,31.10
2018-02-19T21:12:46.254Z,27.35
2018-02-19T21:15:12.545Z,30.30
2018-02-19T21:17:39.829Z,24.80
2018-02-19T21:20:07.877Z,28.08
2018-02-19T21:22:34.860Z,24.90
2018-02-19T21:25:01.202Z,26.00
2018-02-19T21:27:27.847Z,26.27
2018-02-19T21:29:54.536Z,26.17
2018-02-19T21:32:20.755Z,23.83
2018-02-19T21:34:47.016Z,25.52
2018-02-19T21:37:13.234Z,23.65
2018-02-19T21:39:39.523Z,25.95
2018-02-19T21:42:05.781Z,27.13
2018-02-19T21:44:32.034Z,26.42
2018-02-19T21:46:58.267Z,25.23
2018-02-19T21:49:24.487Z,25.60
2018-02-19T21:51:50.688Z,28.00
2018-02-19T21:54:17.016Z,29.10
2018-02-19T21:56:43.295Z,26.00
2018-02-19T21:59:09.902Z,30.48
2018-02-19T22:01:36.144Z,30.33
2018-02-19T22:04:02.374Z,26.40
2018-02-19T22:06:28.625Z,30.83
2018-02-19T22:08:54.916Z,29.05
2018-02-19T22:11:21.153Z,31.30
2018-02-19T22:13:47.448Z,32.72
2018-02-19T22:16:13.798Z,31.55
2018-02-19T22:18:40.984Z,28.70
2018-02-19T22:21:07.662Z,26.40
2018-02-19T22:23:33.985Z,26.58
2018-02-19T22:26:00.331Z,26.58
2018-02-19T22:28:26.601Z,26.50
2018-02-19T22:30:53.193Z,27.48
2018-02-19T22:33:19.426Z,27.85
2018-02-19T22:35:45.761Z,26.70
2018-02-19T22:38:12.006Z,27.60
2018-02-19T22:40:38.275Z,24.65
2018-02-19T22:43:04.564Z,28.25
2018-02-19T22:45:30.848Z,28.12
2018-02-19T22:47:57.064Z,27.60
2018-02-19T22:50:23.672Z,27.58
2018-02-19T22:52:49.912Z,26.30
2018-02-19T22:55:16.497Z,26.85
2018-02-19T22:57:42.821Z,26.90
2018-02-19T23:00:09.060Z,27.60
2018-02-19T23:02:35.294Z,25.95
2018-02-19T23:05:01.681Z,27.60
2018-02-19T23:07:27.879Z,28.65
2018-02-19T23:09:54.130Z,27.62
2018-02-19T23:12:20.839Z,27.40
2018-02-19T23:14:47.058Z,27.27
2018-02-19T23:17:13.257Z,25.88
2018-02-19T23:19:39.493Z,27.65
2018-02-19T23:22:05.714Z,27.75
2018-02-19T23:24:31.919Z,28.98
2018-02-19T23:26:58.159Z,27.45
2018-02-19T23:29:24.378Z,29.12
2018-02-19T23:31:50.678Z,26.08
2018-02-19T23:34:16.955Z,27.17
2018-02-19T23:36:43.201Z,27.65
2018-02-19T23:39:09.474Z,27.55
2018-02-19T23:41:35.804Z,29.85
2018-02-19T23:44:02.474Z,28.52
2018-02-19T23:46:28.829Z,28.73
2018-02-19T23:48:55.032Z,27.67
2018-02-19T23:51:21.203Z,31.80
2018-02-19T23:53:47.434Z,28.75
2018-02-19T23:56:13.606Z,28.77
2018-02-19T23:58:39.916Z,29.27
